Time;durP1;ratioP1;P1;durP2;ratioP2;P2;SDS_P1;SDS_P2;PMS_P1;PMS_P2;Temp;Humidity;BMP_temperature;BMP_pressure;BME280_temperature;BME280_humidity;BME280_pressure;Samples;Min_cycle;Max_cycle;Signal;HPM_P1;HPM_P2
2022/05/08 00:02:28;;;;;;;6.47;5.37;;;;;9.40;94578.00;;;;7392269;19;20175;-78
2022/05/08 00:04:57;;;;;;;10.50;6.30;;;;;9.30;94580.00;;;;7390682;19;20140;-77
2022/05/08 00:07:31;;;;;;;8.67;6.13;;;;;9.00;94588.00;;;;7390055;19;20144;-78
2022/05/08 00:09:59;;;;;;;7.20;6.50;;;;;9.00;94581.00;;;;7390802;19;20168;-78
2022/05/08 00:12:27;;;;;;;14.37;7.40;;;;;8.90;94584.00;;;;7390600;19;20549;-78
2022/05/08 00:15:03;;;;;;;8.57;6.50;;;;;9.10;94587.00;;;;7391086;19;20184;-78
2022/05/08 00:17:34;;;;;;;9.97;6.23;;;;;9.40;94579.00;;;;7390689;19;20584;-78
2022/05/08 00:20:08;;;;;;;8.10;5.50;;;;;9.40;94579.00;;;;7390900;19;20164;-78
2022/05/08 00:22:45;;;;;;;9.73;6.23;;;;;9.40;94580.00;;;;7391924;19;20128;-78
2022/05/08 00:25:13;;;;;;;7.00;5.80;;;;;9.50;94570.00;;;;7390524;19;20145;-78
2022/05/08 00:27:41;;;;;;;8.67;5.67;;;;;9.50;94577.00;;;;7385563;19;20652;-78
2022/05/08 00:30:15;;;;;;;11.67;6.10;;;;;9.30;94575.00;;;;7386949;19;20633;-78
2022/05/08 00:32:42;;;;;;;7.27;6.10;;;;;9.30;94572.00;;;;7389481;19;20154;-78
2022/05/08 00:35:10;;;;;;;9.17;6.03;;;;;9.40;94570.00;;;;7391347;19;20129;-78
2022/05/08 00:37:44;;;;;;;7.63;5.90;;;;;9.40;94574.00;;;;7390754;19;20144;-78
2022/05/08 00:40:12;;;;;;;8.23;6.30;;;;;9.30;94570.00;;;;7390603;19;20615;-78
2022/05/08 00:42:41;;;;;;;8.10;5.77;;;;;9.30;94574.00;;;;7391237;19;20602;-78
2022/05/08 00:45:15;;;;;;;6.80;6.07;;;;;9.30;94568.00;;;;7392592;19;20166;-78
2022/05/08 00:47:42;;;;;;;6.37;5.77;;;;;9.20;94565.00;;;;7392282;19;20706;-78
2022/05/08 00:50:10;;;;;;;7.87;6.20;;;;;9.30;94574.00;;;;7389919;19;20125;-78
2022/05/08 00:52:44;;;;;;;6.40;5.80;;;;;9.30;94569.00;;;;7389406;19;20497;-78
2022/05/08 00:55:12;;;;;;;8.03;6.40;;;;;9.30;94567.00;;;;7388853;19;20615;-78
2022/05/08 00:57:42;;;;;;;10.60;6.40;;;;;9.40;94560.00;;;;7395666;19;20172;-78
2022/05/08 01:00:29;;;;;;;7.23;6.43;;;;;9.40;94556.00;;;;7401342;19;20186;-79
2022/05/08 01:03:04;;;;;;;9.63;6.60;;;;;9.40;94557.00;;;;7396940;19;20161;-78
2022/05/08 01:05:41;;;;;;;8.00;6.80;;;;;9.50;94551.00;;;;7396718;19;20189;-78
2022/05/08 01:08:11;;;;;;;9.53;5.93;;;;;9.50;94561.00;;;;7394034;19;20164;-78
2022/05/08 01:10:45;;;;;;;10.23;6.20;;;;;9.50;94549.00;;;;7395445;19;20175;-78
2022/05/08 01:13:12;;;;;;;6.97;6.10;;;;;9.50;94555.00;;;;7400259;19;20157;-78
2022/05/08 01:15:45;;;;;;;11.30;6.43;;;;;9.70;94553.00;;;;7396281;19;20173;-78
2022/05/08 01:18:20;;;;;;;7.93;5.93;;;;;9.60;94550.00;;;;7396241;19;20128;-79
2022/05/08 01:20:48;;;;;;;7.30;6.10;;;;;9.60;94548.00;;;;7396458;19;20164;-78
2022/05/08 01:23:16;;;;;;;6.50;5.90;;;;;9.70;94545.00;;;;7399271;19;20125;-78
2022/05/08 01:25:56;;;;;;;6.13;5.53;;;;;9.80;94549.00;;;;7397196;19;20552;-78
2022/05/08 01:28:25;;;;;;;8.47;5.63;;;;;9.90;94544.00;;;;7396976;19;20520;-78
2022/05/08 01:30:59;;;;;;;8.53;5.43;;;;;9.90;94537.00;;;;7395988;19;20158;-78
2022/05/08 01:33:27;;;;;;;5.70;5.10;;;;;9.80;94541.00;;;;7397797;19;20213;-78
2022/05/08 01:35:56;;;;;;;7.80;5.23;;;;;9.90;94539.00;;;;7396638;19;20608;-78
2022/05/08 01:38:30;;;;;;;6.93;5.27;;;;;9.80;94541.00;;;;7395747;19;20140;-78
2022/05/08 01:41:03;;;;;;;6.33;5.37;;;;;9.90;94546.00;;;;7395776;19;20153;-78
2022/05/08 01:43:38;;;;;;;6.90;4.93;;;;;9.90;94546.00;;;;7399605;19;20157;-79
2022/05/08 01:46:06;;;;;;;6.07;4.97;;;;;9.90;94541.00;;;;7395408;19;20149;-79
2022/05/08 01:48:34;;;;;;;8.97;5.50;;;;;9.90;94537.00;;;;7398321;19;20629;-79
2022/05/08 01:51:10;;;;;;;6.63;5.40;;;;;9.90;94538.00;;;;7396646;19;20215;-78
2022/05/08 01:53:39;;;;;;;7.47;5.00;;;;;9.90;94540.00;;;;7394886;19;20172;-79
2022/05/08 01:56:08;;;;;;;7.43;5.47;;;;;9.90;94545.00;;;;7396973;19;20587;-79
2022/05/08 01:58:48;;;;;;;6.87;5.70;;;;;9.80;94544.00;;;;7396098;19;20136;-78
2022/05/08 02:01:22;;;;;;;7.57;5.93;;;;;9.90;94545.00;;;;7393046;19;20167;-78
2022/05/08 02:04:03;;;;;;;8.63;5.40;;;;;9.80;94542.00;;;;7399564;19;20644;-78
2022/05/08 02:06:31;;;;;;;7.07;5.60;;;;;9.90;94542.00;;;;7393886;19;20166;-78
2022/05/08 02:09:05;;;;;;;5.30;4.80;;;;;9.70;94549.00;;;;7396213;19;20129;-78
2022/05/08 02:11:33;;;;;;;6.60;4.87;;;;;9.60;94545.00;;;;7394854;19;20176;-79
2022/05/08 02:14:02;;;;;;;5.93;5.33;;;;;9.70;94552.00;;;;7394545;19;20137;-78
2022/05/08 02:16:36;;;;;;;8.97;5.50;;;;;9.70;94554.00;;;;7394524;19;20191;-78
2022/05/08 02:19:03;;;;;;;6.00;5.40;;;;;9.80;94550.00;;;;7394839;19;20129;-78
2022/05/08 02:21:31;;;;;;;8.10;5.70;;;;;9.70;94551.00;;;;7394691;19;20165;-78
2022/05/08 02:24:05;;;;;;;7.30;5.53;;;;;9.80;94555.00;;;;7394514;19;20152;-78
2022/05/08 02:26:32;;;;;;;9.77;5.37;;;;;9.70;94554.00;;;;7394174;19;20216;-78
2022/05/08 02:29:00;;;;;;;5.43;4.83;;;;;9.70;94550.00;;;;7395952;19;20156;-78
2022/05/08 02:31:34;;;;;;;9.70;5.47;;;;;9.70;94548.00;;;;7394058;19;20136;-78
2022/05/08 02:34:02;;;;;;;8.67;5.87;;;;;9.70;94554.00;;;;7395427;19;20614;-78
2022/05/08 02:36:29;;;;;;;8.27;5.83;;;;;9.70;94551.00;;;;7393476;19;20133;-78
2022/05/08 02:39:03;;;;;;;7.00;5.77;;;;;9.70;94550.00;;;;7394393;19;20496;-78
2022/05/08 02:41:30;;;;;;;5.97;5.27;;;;;9.90;94548.00;;;;7394395;19;20133;-78
2022/05/08 02:43:58;;;;;;;5.97;5.33;;;;;9.80;94541.00;;;;7397212;19;20208;-78
2022/05/08 02:46:32;;;;;;;6.37;5.43;;;;;9.70;94553.00;;;;7394615;19;20137;-78
2022/05/08 02:48:59;;;;;;;7.87;5.20;;;;;9.70;94549.00;;;;7393571;19;20141;-78
2022/05/08 02:51:27;;;;;;;7.93;5.63;;;;;9.90;94554.00;;;;7394446;19;20147;-78
2022/05/08 02:54:01;;;;;;;6.77;5.10;;;;;9.80;94555.00;;;;7393274;19;20148;-78
2022/05/08 02:59:21;;;;;;;8.10;5.50;;;;;9.80;94557.00;;;;7393009;19;20166;-78
2022/05/08 03:02:01;;;;;;;6.73;5.23;;;;;9.80;94554.00;;;;7391211;19;20161;-79
2022/05/08 03:04:36;;;;;;;8.87;5.67;;;;;9.70;94571.00;;;;7393334;19;20188;-78
2022/05/08 03:07:04;;;;;;;8.63;5.87;;;;;9.50;94563.00;;;;7393064;19;20141;-78
2022/05/08 03:09:31;;;;;;;9.03;5.43;;;;;9.30;94560.00;;;;7391955;19;20632;-79
2022/05/08 03:12:06;;;;;;;6.33;5.17;;;;;9.30;94558.00;;;;7394552;19;20138;-78
2022/05/08 03:14:34;;;;;;;7.00;5.50;;;;;9.30;94565.00;;;;7390305;19;20137;-78
2022/05/08 03:17:01;;;;;;;7.27;5.37;;;;;9.30;94558.00;;;;7395770;19;20138;-79
2022/05/08 03:19:36;;;;;;;10.60;5.50;;;;;9.00;94563.00;;;;7390594;19;20498;-78
2022/05/08 03:22:03;;;;;;;7.07;6.03;;;;;9.00;94566.00;;;;7392694;19;20542;-78
2022/05/08 03:24:31;;;;;;;6.27;5.67;;;;;8.80;94558.00;;;;7392104;19;20145;-79
2022/05/08 03:27:06;;;;;;;10.87;5.70;;;;;8.70;94560.00;;;;7392657;19;20603;-78
2022/05/08 03:29:34;;;;;;;7.90;6.07;;;;;8.60;94566.00;;;;7393631;19;20156;-78
2022/05/08 03:32:02;;;;;;;11.30;6.43;;;;;8.80;94556.00;;;;7391799;19;20145;-79
2022/05/08 03:34:37;;;;;;;7.77;5.70;;;;;8.90;94559.00;;;;7392082;19;20168;-79
2022/05/08 03:37:05;;;;;;;8.90;5.70;;;;;8.80;94559.00;;;;7393901;19;20132;-78
2022/05/08 03:39:33;;;;;;;8.03;5.97;;;;;8.90;94555.00;;;;7391837;19;20136;-78
2022/05/08 03:42:07;;;;;;;6.97;5.97;;;;;8.90;94550.00;;;;7391114;19;20188;-79
2022/05/08 03:44:35;;;;;;;8.60;6.13;;;;;8.80;94547.00;;;;7392638;19;20147;-79
2022/05/08 03:47:03;;;;;;;5.97;5.30;;;;;8.80;94553.00;;;;7394932;19;20164;-79
2022/05/08 03:49:37;;;;;;;9.73;5.93;;;;;8.80;94550.00;;;;7392154;19;20158;-78
2022/05/08 03:52:05;;;;;;;7.33;5.90;;;;;8.80;94557.00;;;;7394560;19;20184;-78
2022/05/08 03:54:32;;;;;;;9.90;5.77;;;;;8.80;94550.00;;;;7394587;19;20146;-79
2022/05/08 03:57:06;;;;;;;7.50;6.47;;;;;8.90;94553.00;;;;7395656;19;20144;-79
2022/05/08 03:59:33;;;;;;;8.30;6.90;;;;;9.00;94554.00;;;;7392264;19;20152;-79
2022/05/08 04:02:01;;;;;;;8.53;6.67;;;;;9.00;94552.00;;;;7389077;19;20193;-78
2022/05/08 04:04:41;;;;;;;8.73;6.83;;;;;9.00;94549.00;;;;7391871;19;20246;-78
2022/05/08 04:07:09;;;;;;;7.93;7.07;;;;;9.10;94562.00;;;;7390569;19;20133;-79
2022/05/08 04:09:44;;;;;;;8.97;7.37;;;;;9.00;94549.00;;;;7392616;19;20145;-79
2022/05/08 04:12:11;;;;;;;15.43;8.33;;;;;9.10;94556.00;;;;7391094;19;20140;-79
2022/05/08 04:14:39;;;;;;;9.43;7.20;;;;;9.20;94560.00;;;;7391425;19;20144;-78
2022/05/08 04:17:13;;;;;;;11.57;8.43;;;;;9.20;94567.00;;;;7390642;19;20137;-79
2022/05/08 04:19:40;;;;;;;10.27;8.80;;;;;9.20;94557.00;;;;7392920;19;20141;-78
2022/05/08 04:25:01;;;;;;;10.43;8.57;;;;;9.40;94549.00;;;;7393681;19;20592;-78
2022/05/08 04:27:28;;;;;;;13.23;8.47;;;;;9.30;94559.00;;;;7387647;19;20876;-78
2022/05/08 04:29:56;;;;;;;10.70;9.60;;;;;9.30;94560.00;;;;7394848;19;20557;-78
2022/05/08 04:32:31;;;;;;;9.57;8.67;;;;;9.30;94563.00;;;;7399233;19;20133;-79
2022/05/08 04:34:58;;;;;;;10.90;8.93;;;;;9.40;94566.00;;;;7402004;19;20182;-78
2022/05/08 04:37:26;;;;;;;13.63;9.70;;;;;9.50;94563.00;;;;7397285;19;20186;-78
2022/05/08 04:40:00;;;;;;;11.43;9.63;;;;;9.40;94566.00;;;;7402311;19;20164;-78
2022/05/08 04:42:28;;;;;;;11.83;9.13;;;;;9.50;94566.00;;;;7398995;19;20184;-78
2022/05/08 04:44:56;;;;;;;14.37;8.90;;;;;9.70;94569.00;;;;7401267;19;20624;-78
2022/05/08 04:47:31;;;;;;;10.03;8.60;;;;;9.90;94568.00;;;;7398062;19;20152;-78
2022/05/08 04:49:58;;;;;;;9.97;8.33;;;;;10.00;94573.00;;;;7401212;19;20156;-78
2022/05/08 04:52:26;;;;;;;9.33;8.33;;;;;10.20;94569.00;;;;7402971;19;20133;-80
2022/05/08 04:55:03;;;;;;;11.03;8.80;;;;;10.30;94575.00;;;;7396151;19;20619;-75
2022/05/08 04:57:30;;;;;;;11.77;9.17;;;;;10.70;94573.00;;;;7397214;19;20181;-76
2022/05/08 05:00:02;;;;;;;11.13;8.80;;;;;10.90;94576.00;;;;7398003;19;20173;-76
2022/05/08 05:02:44;;;;;;;11.23;8.13;;;;;10.90;94574.00;;;;7397821;19;20160;-76
2022/05/08 05:05:12;;;;;;;8.60;7.40;;;;;11.20;94572.00;;;;7396801;19;20132;-75
2022/05/08 05:07:46;;;;;;;9.43;8.53;;;;;11.20;94570.00;;;;7398869;19;20598;-75
2022/05/08 05:10:14;;;;;;;8.90;8.00;;;;;11.20;94582.00;;;;7398031;19;20180;-76
2022/05/08 05:12:41;;;;;;;10.47;8.13;;;;;11.30;94585.00;;;;7396277;19;20121;-76
2022/05/08 05:15:16;;;;;;;8.88;7.07;;;;;11.20;94587.00;;;;7397869;19;20778;-76
2022/05/08 05:17:44;;;;;;;9.20;7.88;;;;;11.30;94586.00;;;;7398181;19;20125;-77
2022/05/08 05:20:12;;;;;;;8.77;7.88;;;;;11.30;94589.00;;;;7398886;19;20125;-75
2022/05/08 05:22:46;;;;;;;9.45;8.32;;;;;11.40;94586.00;;;;7397503;19;20128;-76
2022/05/08 05:25:13;;;;;;;10.48;7.75;;;;;11.70;94581.00;;;;7399099;19;20149;-75
2022/05/08 05:27:42;;;;;;;9.25;8.13;;;;;11.90;94588.00;;;;7398905;19;20227;-75
2022/05/08 05:30:18;;;;;;;9.82;8.93;;;;;12.30;94584.00;;;;7401819;19;20148;-75
2022/05/08 05:32:46;;;;;;;10.27;9.27;;;;;12.60;94596.00;;;;7403333;19;20173;-77
2022/05/08 05:35:13;;;;;;;12.57;9.13;;;;;13.00;94586.00;;;;7399915;19;20488;-76
2022/05/08 05:37:48;;;;;;;10.75;9.43;;;;;13.30;94588.00;;;;7398769;19;20136;-75
2022/05/08 05:40:16;;;;;;;11.82;9.70;;;;;13.70;94591.00;;;;7400914;19;20173;-75
2022/05/08 05:42:44;;;;;;;10.65;9.55;;;;;14.00;94596.00;;;;7398217;19;20184;-75
2022/05/08 05:45:18;;;;;;;12.70;11.05;;;;;14.10;94593.00;;;;7401762;19;20502;-75
2022/05/08 05:47:59;;;;;;;13.80;10.90;;;;;14.40;94595.00;;;;7397893;19;20145;-76
2022/05/08 05:50:37;;;;;;;12.27;10.00;;;;;14.70;94597.00;;;;7400067;19;20149;-75
2022/05/08 05:53:05;;;;;;;12.55;10.10;;;;;14.40;94602.00;;;;7402548;19;20133;-75
2022/05/08 05:55:33;;;;;;;11.13;9.98;;;;;14.30;94609.00;;;;7400832;19;20548;-76
2022/05/08 05:58:07;;;;;;;11.60;10.15;;;;;13.90;94605.00;;;;7401945;19;20175;-77
2022/05/08 06:00:35;;;;;;;14.93;10.10;;;;;13.90;94617.00;;;;7400892;19;20173;-77
2022/05/08 06:03:06;;;;;;;11.48;10.38;;;;;13.70;94601.00;;;;7398567;19;20176;-77
2022/05/08 06:05:41;;;;;;;11.43;10.30;;;;;13.70;94609.00;;;;7399513;19;20152;-77
2022/05/08 06:08:09;;;;;;;13.43;10.88;;;;;14.00;94607.00;;;;7401128;19;20258;-77
2022/05/08 06:10:36;;;;;;;15.13;10.63;;;;;14.50;94608.00;;;;7402007;19;20470;-77
2022/05/08 06:13:12;;;;;;;12.27;10.25;;;;;15.30;94598.00;;;;7403805;19;20121;-77
2022/05/08 06:15:40;;;;;;;14.05;10.80;;;;;16.10;94605.00;;;;7401144;19;20133;-75
2022/05/08 06:18:08;;;;;;;10.68;9.68;;;;;16.80;94605.00;;;;7400024;19;20465;-76
2022/05/08 06:20:42;;;;;;;11.52;9.63;;;;;17.10;94603.00;;;;7398324;19;20139;-75
2022/05/08 06:23:10;;;;;;;11.70;10.52;;;;;17.10;94607.00;;;;7398086;19;20148;-77
2022/05/08 06:25:41;;;;;;;10.40;9.43;;;;;17.40;94608.00;;;;7396769;19;20627;-76
2022/05/08 06:28:22;;;;;;;9.95;8.95;;;;;17.40;94607.00;;;;7398021;19;20166;-76
2022/05/08 06:30:49;;;;;;;9.65;8.75;;;;;17.60;94609.00;;;;7396151;19;20129;-76
2022/05/08 06:33:24;;;;;;;10.13;7.80;;;;;18.10;94600.00;;;;7397789;19;20156;-76
2022/05/08 06:35:54;;;;;;;8.57;7.63;;;;;18.20;94606.00;;;;7397861;19;20191;-74
2022/05/08 06:38:21;;;;;;;8.90;8.02;;;;;18.50;94610.00;;;;7398137;19;20145;-75
2022/05/08 06:40:56;;;;;;;11.85;8.15;;;;;18.70;94603.00;;;;7401931;19;20607;-75
2022/05/08 06:43:24;;;;;;;7.65;6.90;;;;;18.70;94624.00;;;;7400296;19;20163;-78
2022/05/08 06:45:55;;;;;;;7.88;7.07;;;;;18.60;94619.00;;;;7398394;19;20497;-77
2022/05/08 06:48:29;;;;;;;8.45;6.80;;;;;18.00;94630.00;;;;7398279;19;20527;-75
2022/05/08 06:50:57;;;;;;;10.20;6.80;;;;;17.40;94630.00;;;;7397437;19;20628;-76
2022/05/08 06:53:26;;;;;;;8.95;6.97;;;;;17.40;94637.00;;;;7401980;19;20140;-75
2022/05/08 06:56:01;;;;;;;10.18;7.25;;;;;17.20;94638.00;;;;7400413;19;20589;-76
2022/05/08 06:58:29;;;;;;;8.55;7.65;;;;;16.80;94639.00;;;;7398958;19;20149;-75
2022/05/08 07:03:49;;;;;;;8.50;7.47;;;;;16.80;94643.00;;;;7402831;19;20128;-74
2022/05/08 07:06:20;;;;;;;9.13;7.55;;;;;17.20;94643.00;;;;7396396;19;20129;-75
2022/05/08 07:08:48;;;;;;;7.70;7.00;;;;;17.40;94636.00;;;;7399647;19;20156;-76
2022/05/08 07:11:23;;;;;;;8.68;7.80;;;;;17.20;94639.00;;;;7399029;19;20595;-75
2022/05/08 07:13:51;;;;;;;8.82;7.93;;;;;17.30;94645.00;;;;7400143;19;20491;-76
2022/05/08 07:16:19;;;;;;;8.23;7.43;;;;;17.50;94636.00;;;;7398399;19;20518;-76
2022/05/08 07:18:54;;;;;;;7.95;6.88;;;;;17.90;94638.00;;;;7398196;19;20213;-75
2022/05/08 07:21:22;;;;;;;9.05;6.70;;;;;17.80;94641.00;;;;7393385;19;20132;-76
2022/05/08 07:23:50;;;;;;;7.93;7.05;;;;;17.30;94653.00;;;;7398965;19;20145;-76
2022/05/08 07:26:24;;;;;;;9.15;7.38;;;;;17.30;94657.00;;;;7398656;19;20500;-75
2022/05/08 07:28:52;;;;;;;9.10;7.70;;;;;17.10;94662.00;;;;7397568;19;20133;-75
2022/05/08 07:31:20;;;;;;;10.18;7.80;;;;;17.20;94670.00;;;;7379112;19;20161;-86
2022/05/08 07:38:02;;;;;;;11.23;7.38;;;;;17.00;94683.00;;;;7396545;19;20164;-89
2022/05/08 07:41:00;;;;;;;7.38;6.18;;;;;17.20;94681.00;;;;7394897;19;20138;-88
2022/05/08 07:43:28;;;;;;;11.43;7.43;;;;;17.40;94676.00;;;;7394848;19;20148;-89
2022/05/08 07:46:06;;;;;;;8.35;6.70;;;;;17.40;94678.00;;;;7392898;19;20140;-88
2022/05/08 07:48:34;;;;;;;7.47;6.55;;;;;17.50;94693.00;;;;7393929;19;20179;-88
2022/05/08 07:51:02;;;;;;;8.05;7.03;;;;;17.40;94688.00;;;;7392575;19;20637;-85
2022/05/08 07:53:37;;;;;;;7.70;6.85;;;;;17.40;94691.00;;;;7391918;19;20144;-86
2022/05/08 07:56:06;;;;;;;9.60;6.72;;;;;17.20;94698.00;;;;7392641;19;20182;-88
2022/05/08 07:58:34;;;;;;;7.18;6.55;;;;;16.90;94694.00;;;;7392930;19;20137;-86
2022/05/08 08:01:22;;;;;;;9.00;7.00;;;;;17.00;94690.00;;;;7394918;19;20235;-91
2022/05/08 08:04:10;;;;;;;8.25;7.03;;;;;17.20;94697.00;;;;7395982;19;20607;-89
2022/05/08 08:06:46;;;;;;;9.75;7.57;;;;;17.20;94709.00;;;;7394384;19;20156;-92
2022/05/08 08:09:13;;;;;;;8.38;6.63;;;;;17.20;94710.00;;;;7397330;19;20483;-93
2022/05/08 08:11:44;;;;;;;7.80;6.80;;;;;17.50;94705.00;;;;7398229;19;20456;-93
2022/05/08 08:14:42;;;;;;;7.47;6.78;;;;;17.40;94709.00;;;;7398470;19;20607;-92
2022/05/08 08:17:15;;;;;;;7.35;6.65;;;;;17.40;94705.00;;;;7394753;19;20158;-90
2022/05/08 08:19:53;;;;;;;8.18;6.20;;;;;17.80;94707.00;;;;7395087;19;20186;-88
2022/05/08 08:22:22;;;;;;;8.13;6.85;;;;;17.70;94709.00;;;;7395481;19;20148;-90
2022/05/08 08:24:59;;;;;;;8.32;6.60;;;;;18.00;94706.00;;;;7393814;19;20169;-88
2022/05/08 08:27:28;;;;;;;7.25;6.55;;;;;18.70;94710.00;;;;7395241;19;20142;-89
2022/05/08 08:29:56;;;;;;;6.82;6.22;;;;;19.20;94707.00;;;;7391988;19;20509;-88
2022/05/08 08:32:37;;;;;;;8.98;6.05;;;;;19.40;94697.00;;;;7390859;19;20164;-87
2022/05/08 08:35:05;;;;;;;6.75;5.72;;;;;19.70;94701.00;;;;7391094;19;20180;-91
2022/05/08 08:37:39;;;;;;;6.75;6.07;;;;;20.60;94693.00;;;;7395453;19;20144;-89
2022/05/08 08:40:07;;;;;;;11.85;6.40;;;;;21.00;94688.00;;;;7390503;19;20177;-90
2022/05/08 08:42:43;;;;;;;8.45;5.90;;;;;21.70;94693.00;;;;7392950;19;20212;-86
2022/05/08 08:48:11;;;;;;;7.10;6.32;;;;;21.20;94699.00;;;;7393406;19;20515;-93
2022/05/08 08:50:46;;;;;;;8.40;6.20;;;;;20.80;94704.00;;;;7395146;19;20137;-93
2022/05/08 08:53:14;;;;;;;7.40;6.53;;;;;20.70;94702.00;;;;7397671;19;20163;-92
2022/05/08 08:55:42;;;;;;;7.22;6.25;;;;;21.10;94709.00;;;;7398903;19;20924;-94
2022/05/08 08:58:17;;;;;;;6.07;5.47;;;;;20.70;94703.00;;;;7397479;19;20145;-93
2022/05/08 09:00:51;;;;;;;8.23;6.18;;;;;20.50;94716.00;;;;7393998;19;20515;-90
2022/05/08 09:03:27;;;;;;;10.05;6.30;;;;;20.00;94716.00;;;;7398550;19;20662;-95
2022/05/08 09:05:57;;;;;;;7.28;6.22;;;;;20.50;94716.00;;;;7392823;19;20156;-92
2022/05/08 09:08:30;;;;;;;10.05;6.13;;;;;20.00;94715.00;;;;7393901;19;20147;-91
2022/05/08 09:11:12;;;;;;;9.52;6.20;;;;;20.10;94715.00;;;;7395064;19;20583;-92
2022/05/08 09:13:52;;;;;;;6.45;5.88;;;;;20.10;94718.00;;;;7392127;19;20163;-92
2022/05/08 09:16:26;;;;;;;7.80;6.05;;;;;20.30;94726.00;;;;7394443;19;20649;-93
2022/05/08 09:18:54;;;;;;;6.55;5.82;;;;;20.10;94717.00;;;;7400088;19;20636;-93
2022/05/08 09:24:23;;;;;;;8.23;6.65;;;;;20.00;94719.00;;;;7400175;19;20155;-90
2022/05/08 09:27:10;;;;;;;7.07;6.28;;;;;19.60;94726.00;;;;7396897;19;20152;-89
2022/05/08 09:29:46;;;;;;;8.65;6.10;;;;;19.70;94722.00;;;;7398746;19;20567;-90
2022/05/08 09:32:47;;;;;;;7.95;6.07;;;;;20.20;94720.00;;;;7398078;19;20232;-91
2022/05/08 09:35:42;;;;;;;8.23;7.13;;;;;20.90;94716.00;;;;7398942;19;20177;-93
2022/05/08 09:38:10;;;;;;;7.18;6.07;;;;;21.30;94714.00;;;;7398325;19;20145;-91
2022/05/08 09:40:47;;;;;;;7.60;6.40;;;;;21.40;94704.00;;;;7400869;19;20177;-91
2022/05/08 09:43:28;;;;;;;7.00;6.40;;;;;21.40;94712.00;;;;7400014;19;20633;-92
2022/05/08 09:46:08;;;;;;;7.50;6.68;;;;;21.60;94708.00;;;;7396958;19;20120;-88
2022/05/08 09:48:36;;;;;;;7.05;6.18;;;;;21.40;94701.00;;;;7400138;19;20144;-89
2022/05/08 09:51:11;;;;;;;9.63;6.78;;;;;22.10;94704.00;;;;7396892;19;20141;-89
2022/05/08 09:53:40;;;;;;;7.82;6.10;;;;;22.60;94698.00;;;;7398411;19;20587;-86
2022/05/08 09:56:09;;;;;;;9.63;5.70;;;;;22.90;94698.00;;;;7396602;19;20131;-87
2022/05/08 09:58:50;;;;;;;6.30;5.07;;;;;23.30;94700.00;;;;7390543;19;21297;-87
2022/05/08 10:01:18;;;;;;;6.80;5.22;;;;;23.70;94698.00;;;;7393978;19;20153;-87
2022/05/08 10:03:55;;;;;;;12.18;5.70;;;;;23.70;94692.00;;;;7395364;19;20160;-89
2022/05/08 10:06:28;;;;;;;8.35;5.57;;;;;24.00;94693.00;;;;7397006;19;20157;-87
2022/05/08 10:14:49;;;;;;;6.80;4.57;;;;;23.00;94705.00;;;;7393520;19;20137;-88
2022/05/08 10:17:32;;;;;;;7.70;4.55;;;;;22.80;94702.00;;;;7391359;19;20200;-84
2022/05/08 10:20:07;;;;;;;6.13;4.03;;;;;22.80;94697.00;;;;7392163;19;20200;-86
2022/05/08 10:22:48;;;;;;;12.57;4.53;;;;;22.30;94709.00;;;;7391696;19;20812;-87
2022/05/08 10:25:22;;;;;;;11.05;4.20;;;;;21.50;94704.00;;;;7390480;19;20163;-88
2022/05/08 10:28:07;;;;;;;4.93;4.30;;;;;22.00;94704.00;;;;7392268;19;20756;-89
2022/05/08 10:30:42;;;;;;;6.10;5.50;;;;;21.80;94704.00;;;;7391409;19;20607;-90
2022/05/08 10:33:16;;;;;;;5.45;4.78;;;;;21.70;94698.00;;;;7389641;19;20180;-88
2022/05/08 10:36:07;;;;;;;7.15;4.90;;;;;21.30;94701.00;;;;7388042;19;20188;-86
2022/05/08 10:38:35;;;;;;;5.50;4.78;;;;;21.50;94704.00;;;;7392568;19;20220;-89
2022/05/08 10:41:56;;;;;;;5.20;4.50;;;;;21.40;94705.00;;;;7394442;19;20618;-88
2022/05/08 10:44:40;;;;;;;5.65;4.78;;;;;21.60;94709.00;;;;7389576;19;20165;-88
2022/05/08 10:47:41;;;;;;;5.32;4.70;;;;;21.90;94708.00;;;;7390360;19;20156;-86
2022/05/08 10:50:13;;;;;;;6.38;4.70;;;;;22.10;94705.00;;;;7388927;19;20156;-88
2022/05/08 10:52:52;;;;;;;10.35;4.25;;;;;22.80;94700.00;;;;7391161;19;20164;-85
2022/05/08 10:55:24;;;;;;;6.82;4.90;;;;;22.60;94700.00;;;;7392415;19;20208;-89
2022/05/08 10:57:58;;;;;;;6.13;4.47;;;;;23.70;94690.00;;;;7393731;19;20622;-88
2022/05/08 11:00:30;;;;;;;7.22;4.72;;;;;24.30;94685.00;;;;7390727;19;20160;-89
2022/05/08 11:02:59;;;;;;;5.95;4.32;;;;;23.80;94696.00;;;;7394473;19;20160;-88
2022/05/08 11:05:38;;;;;;;8.98;5.38;;;;;23.70;94693.00;;;;7397693;19;20148;-87
2022/05/08 11:08:10;;;;;;;5.20;4.70;;;;;23.30;94703.00;;;;7392849;19;20148;-89
2022/05/08 11:10:44;;;;;;;7.70;4.75;;;;;23.50;94698.00;;;;7395784;19;20502;-88
2022/05/08 11:13:21;;;;;;;7.00;5.05;;;;;23.20;94707.00;;;;7398102;19;20157;-92
2022/05/08 11:15:59;;;;;;;5.18;4.68;;;;;23.80;94717.00;;;;7398967;19;20156;-88
2022/05/08 11:18:28;;;;;;;7.72;5.20;;;;;23.40;94701.00;;;;7398298;19;20478;-89
2022/05/08 11:21:09;;;;;;;6.53;5.38;;;;;24.10;94702.00;;;;7390594;19;20168;-90
2022/05/08 11:23:42;;;;;;;10.18;5.15;;;;;24.30;94722.00;;;;7399259;19;20543;-90
2022/05/08 11:26:16;;;;;;;6.55;5.70;;;;;24.00;94707.00;;;;7402195;19;20132;-91
2022/05/08 11:28:51;;;;;;;6.22;4.88;;;;;24.10;94708.00;;;;7392512;19;20148;-91
2022/05/08 11:31:28;;;;;;;5.57;5.10;;;;;24.80;94701.00;;;;7396359;19;20155;-90
2022/05/08 11:37:01;;;;;;;7.50;5.18;;;;;25.70;94704.00;;;;7397106;19;20240;-91
2022/05/08 11:39:30;;;;;;;10.70;5.53;;;;;25.80;94700.00;;;;7397086;19;20160;-93
2022/05/08 11:42:04;;;;;;;5.93;4.68;;;;;26.90;94695.00;;;;7397526;19;20165;-92
2022/05/08 11:44:35;;;;;;;10.93;5.35;;;;;26.90;94711.00;;;;7396757;19;20158;-91
2022/05/08 11:47:12;;;;;;;5.32;4.55;;;;;26.30;94689.00;;;;7397852;19;20607;-94
2022/05/08 11:49:46;;;;;;;6.82;5.30;;;;;26.30;94699.00;;;;7397943;19;20141;-85
2022/05/08 11:52:21;;;;;;;5.43;4.90;;;;;25.30;94694.00;;;;7395808;19;20186;-93
2022/05/08 11:55:02;;;;;;;7.53;6.15;;;;;25.50;94693.00;;;;7396664;19;20140;-89
2022/05/08 11:57:42;;;;;;;8.55;5.53;;;;;25.30;94693.00;;;;7396595;19;20188;-88
2022/05/08 12:00:17;;;;;;;6.38;5.40;;;;;24.80;94716.00;;;;7397040;19;20132;-85
2022/05/08 12:02:58;;;;;;;6.72;6.03;;;;;24.00;94725.00;;;;7390484;19;20167;-86
2022/05/08 12:05:33;;;;;;;8.40;6.43;;;;;22.30;94701.00;;;;7395365;19;20161;-87
2022/05/08 12:08:01;;;;;;;8.32;6.60;;;;;22.40;94728.00;;;;7396628;19;20153;-88
2022/05/08 12:10:40;;;;;;;7.40;6.18;;;;;23.50;94693.00;;;;7392497;19;20152;-88
2022/05/08 12:13:15;;;;;;;6.53;5.88;;;;;25.10;94697.00;;;;7393929;19;20152;-88
2022/05/08 12:15:43;;;;;;;7.60;5.90;;;;;25.40;94676.00;;;;7392620;19;20160;-88
2022/05/08 12:18:11;;;;;;;7.05;6.28;;;;;24.40;94703.00;;;;7394235;19;20615;-87
2022/05/08 12:20:51;;;;;;;5.85;5.30;;;;;23.50;94685.00;;;;7393412;19;20132;-88
2022/05/08 12:23:21;;;;;;;10.27;5.82;;;;;23.20;94716.00;;;;7392475;19;20152;-86
2022/05/08 12:26:01;;;;;;;7.53;6.82;;;;;22.60;94719.00;;;;7395382;19;20627;-87
2022/05/08 12:28:42;;;;;;;6.65;6.03;;;;;22.10;94694.00;;;;7391395;19;20129;-87
2022/05/08 12:31:16;;;;;;;8.73;5.82;;;;;22.90;94694.00;;;;7393698;19;20603;-89
2022/05/08 12:33:51;;;;;;;9.63;6.50;;;;;24.50;94679.00;;;;7391321;19;20176;-86
2022/05/08 12:36:26;;;;;;;9.20;5.90;;;;;26.00;94679.00;;;;7393366;19;20160;-87
2022/05/08 12:38:54;;;;;;;6.20;5.60;;;;;25.20;94705.00;;;;7396594;19;20157;-85
2022/05/08 12:41:22;;;;;;;6.65;5.90;;;;;24.10;94704.00;;;;7392383;19;20160;-87
2022/05/08 12:43:56;;;;;;;6.63;5.85;;;;;22.70;94712.00;;;;7393812;19;20148;-90
2022/05/08 12:46:26;;;;;;;6.70;5.97;;;;;22.60;94708.00;;;;7392487;19;20153;-86
2022/05/08 12:49:00;;;;;;;5.82;5.32;;;;;22.40;94695.00;;;;7392429;19;20184;-89
2022/05/08 12:51:36;;;;;;;7.65;6.10;;;;;22.90;94704.00;;;;7393161;19;20165;-87
2022/05/08 12:54:04;;;;;;;6.63;5.93;;;;;23.70;94692.00;;;;7401328;19;20608;-86
2022/05/08 12:56:33;;;;;;;5.88;4.95;;;;;24.10;94684.00;;;;7400627;19;20150;-85
2022/05/08 13:01:53;;;;;;;7.10;5.22;;;;;24.80;94682.00;;;;7402452;19;20176;-89
2022/05/08 13:04:27;;;;;;;6.50;4.90;;;;;24.80;94680.00;;;;7402108;19;20157;-87
2022/05/08 13:06:55;;;;;;;6.93;4.97;;;;;25.10;94673.00;;;;7402653;19;20153;-89
2022/05/08 13:09:23;;;;;;;5.80;4.65;;;;;25.90;94680.00;;;;7398993;19;20141;-87
2022/05/08 13:11:57;;;;;;;5.53;4.82;;;;;25.10;94678.00;;;;7401426;19;20177;-86
2022/05/08 13:14:25;;;;;;;5.78;4.53;;;;;25.90;94675.00;;;;7401438;19;20157;-87
2022/05/08 13:16:53;;;;;;;6.78;5.13;;;;;25.70;94696.00;;;;7400672;19;20599;-90